Meteo Giornale » Osservazioni meteo Italia » Pisa-S Giusto

ore: 15:45 - Osservazioni Meteo Pisa-S Giusto
Lat. 43° 41' N Lon. 10° 23' E Alt. 2 metri s.l.m.

sereno Europe/Rome

29 °C

Sereno

Temp. 24 Ore

13 °C

29 °C

Ovest/Nord-Ovest

18.5 Km/h

Dew point 11 °C

Umidità 32 %

Visibilità  10 Km

Il sole sorge alle ore 05:39

Il sole tramonta alle ore 20:51

Data e Ora Cielo e Fenomeni T °C DP °C Um. % Pres. hPa Vis. km Vento km/h
Oggi h: 15:45 sereno Sereno 29 11 32 1020 10 O/NO 18.5
Oggi h: 15:15 sereno Sereno 29 12 35 1020 10 O/NO 18.5
Oggi h: 14:45 sereno Sereno 29 12 35 1020 10 O/NO 18.5
Oggi h: 14:15 sereno Sereno 29 12 35 1020 10 O/NO 18.5
Oggi h: 13:45 sereno Sereno 29 11 32 1020 10 O 16.7
Oggi h: 13:15 sereno Sereno 29 11 32 1021 10 N 5.5
Oggi h: 12:45 sereno Sereno 28 10 32 1021 10 N 5.5
Oggi h: 12:15 sereno Sereno 28 10 32 1021 10 N 5.5
Oggi h: 11:45 sereno Sereno 27 11 36 1021 10 E/SE 11.1
Oggi h: 11:15 sereno Sereno 27 11 36 1021 10 N 3.7
Oggi h: 10:45 sereno Sereno 26 13 44 1021 10 N 5.5
Oggi h: 10:15 sereno Sereno 24 13 50 1021 10 N 3.7
Oggi h: 09:45 sereno Sereno 23 14 56 1021 10 E/NE 7.4
Oggi h: 09:15 sereno Sereno 21 15 68 1021 10 E/SE 9.3
Oggi h: 08:45 sereno Sereno 20 14 68 1021 10 E/SE 11.1
Oggi h: 08:15 sereno Sereno 19 14 72 1021 10 E/SE 9.3
Oggi h: 07:45 sereno Sereno 17 15 88 1021 10 SE 7.4
Oggi h: 07:15 sereno Sereno 15 13 87 1021 10 E/SE 9.3
Oggi h: 06:45 sereno Sereno 14 13 93 1021 10 SE 9.3
Oggi h: 06:15 sereno Sereno 13 12 93 1021 10 N 3.7
Oggi h: 05:45 sereno Sereno 13 12 93 1021 10 E 14.8
Oggi h: 05:15 sereno Sereno 13 12 93 1020 10 E/SE 9.3
Oggi h: 04:45 sereno Sereno 14 12 87 1020 10 SE 9.3
Oggi h: 04:15 sereno Sereno 14 12 87 1020 10 E 9.3
Oggi h: 03:45 sereno Sereno 15 12 82 1020 10 E 7.4
Oggi h: 03:15 sereno Sereno 16 12 77 1020 10 N 3.7
Oggi h: 02:45 sereno Sereno 16 12 77 1020 10 N 3.7
Oggi h: 02:15 sereno Sereno 15 12 82 1020 10 E 9.3
Oggi h: 01:45 sereno Sereno 15 12 82 1020 10 E 7.4
Oggi h: 01:15 sereno Sereno 16 13 82 1020 10 N 5.5
Oggi h: 00:45 sereno Sereno 16 13 82 1020 10 N 3.7
Oggi h: 00:15 sereno Sereno 16 13 82 1020 10 E/SE 9.3
Ieri h: 23:45 sereno Sereno 17 13 77 1020 10 SE 9.3
Ieri h: 23:15 sereno Sereno 19 13 68 1019 10 S 7.4
Ieri h: 22:45 sereno Sereno 20 10 52 1019 10 N 3.7
Ieri h: 22:15 sereno Sereno 21 10 49 1019 10 N 3.7
Ieri h: 21:45 sereno Sereno 22 10 46 1019 10 N 5.5
Ieri h: 21:15 sereno Sereno 23 8 38 1018 10 NO 7.4
Ieri h: 20:45 sereno Sereno 24 9 38 1018 10 NO 9.3
Ieri h: 20:15 sereno Sereno 24 8 35 1018 10 NO 16.7
Ieri h: 19:45 sereno Sereno 25 7 31 1018 10 NO 13
Ieri h: 19:15 sereno Sereno 26 7 29 1018 10 NO 14.8
Ieri h: 18:45 sereno Sereno 26 8 31 1018 10 NO 18.5
Ieri h: 18:15 sereno Sereno 26 9 34 1018 10 NO 18.5
Ieri h: 17:45 sereno Sereno 27 8 30 1018 10 NO 22.2
Ieri h: 17:15 sereno Sereno 27 8 30 1019 10 NO 20.3
Ieri h: 16:45 sereno Sereno 27 9 32 1019 10 O/NO 20.3